Time;durP1;ratioP1;P1;durP2;ratioP2;P2;SDS_P1;SDS_P2;PMS_P1;PMS_P2;Temp;Humidity;BMP_temperature;BMP_pressure;BME280_temperature;BME280_humidity;BME280_pressure;Samples;Min_cycle;Max_cycle;Signal;HPM_P1;HPM_P2
2023/05/08 00:00:18;;;;;;;;;;;;;;;27.59;38.10;101776.84;4133544;28;19925;-62
2023/05/08 00:02:20;;;;;;;;;;;;;;;27.58;38.04;101778.69;4132237;28;19922;-67
2023/05/08 00:04:21;;;;;;;;;;;;;;;27.59;38.05;101776.84;4132288;28;19921;-64
2023/05/08 00:06:23;;;;;;;;;;;;;;;27.59;37.74;101779.53;4133813;28;19929;-64
2023/05/08 00:08:24;;;;;;;;;;;;;;;27.59;37.96;101779.53;4133364;28;19928;-65
2023/05/08 00:10:27;;;;;;;;;;;;;;;27.58;37.80;101778.69;4133540;28;19921;-62
2023/05/08 00:12:29;;;;;;;;;;;;;;;27.60;37.83;101788.53;4132406;28;19930;-65
2023/05/08 00:14:31;;;;;;;;;;;;;;;27.60;38.13;101788.53;4133232;28;19921;-67
2023/05/08 00:16:32;;;;;;;;;;;;;;;27.61;37.60;101787.50;4132895;28;19949;-63
2023/05/08 00:18:34;;;;;;;;;;;;;;;27.60;37.67;101792.06;4133192;28;19922;-63
2023/05/08 00:20:37;;;;;;;;;;;;;;;27.58;37.72;101792.22;4133381;28;20402;-66
2023/05/08 00:22:39;;;;;;;;;;;;;;;27.58;37.84;101794.91;4131785;28;19926;-67
2023/05/08 00:24:40;;;;;;;;;;;;;;;27.57;37.80;101787.81;4133045;28;20387;-66
2023/05/08 00:26:43;;;;;;;;;;;;;;;27.56;37.71;101790.66;4133096;28;19922;-66
2023/05/08 00:28:44;;;;;;;;;;;;;;;27.55;37.70;101789.78;4133058;28;19921;-63
2023/05/08 00:30:46;;;;;;;;;;;;;;;27.55;37.70;101786.25;4132662;28;19926;-66
2023/05/08 00:32:47;;;;;;;;;;;;;;;27.56;37.68;101780.69;4131840;28;19922;-64
2023/05/08 00:34:49;;;;;;;;;;;;;;;27.56;37.57;101782.53;4133157;28;19926;-64
2023/05/08 00:36:51;;;;;;;;;;;;;;;27.56;37.56;101774.44;4132836;28;19922;-66
2023/05/08 00:38:52;;;;;;;;;;;;;;;27.56;37.64;101771.75;4133185;28;19992;-65
2023/05/08 00:40:54;;;;;;;;;;;;;;;27.56;37.73;101769.03;4132834;28;20395;-65
2023/05/08 00:42:55;;;;;;;;;;;;;;;27.55;37.61;101768.16;4131738;28;20303;-66
2023/05/08 00:44:57;;;;;;;;;;;;;;;27.56;37.77;101771.75;4132727;28;20371;-66
2023/05/08 00:46:58;;;;;;;;;;;;;;;27.56;37.56;101769.03;4133032;28;19921;-65
2023/05/08 00:48:59;;;;;;;;;;;;;;;27.56;37.82;101774.44;4132962;28;19980;-66
2023/05/08 00:51:03;;;;;;;;;;;;;;;27.54;37.60;101771.84;4132649;28;20024;-66
2023/05/08 00:53:05;;;;;;;;;;;;;;;27.53;37.62;101772.00;4131658;28;19928;-65
2023/05/08 00:55:07;;;;;;;;;;;;;;;27.52;37.53;101768.47;4132750;28;20013;-66
2023/05/08 00:57:09;;;;;;;;;;;;;;;27.52;37.84;101771.16;4132688;28;19932;-64
2023/05/08 00:59:12;;;;;;;;;;;;;;;27.51;37.60;101769.44;4115046;28;19926;-65
2023/05/08 01:01:14;;;;;;;;;;;;;;;27.51;37.49;101766.75;4132795;28;19929;-64
2023/05/08 01:03:16;;;;;;;;;;;;;;;27.52;37.81;101764.88;4131715;28;19921;-65
2023/05/08 01:05:18;;;;;;;;;;;;;;;27.52;37.75;101767.59;4132366;28;19922;-65
2023/05/08 01:07:19;;;;;;;;;;;;;;;27.52;37.76;101767.59;4132440;28;19972;-65
2023/05/08 01:09:21;;;;;;;;;;;;;;;27.52;37.52;101765.75;4132626;28;19932;-66
2023/05/08 01:11:36;;;;;;;;;;;;;;;27.52;37.66;101765.75;4132398;28;19922;-64
2023/05/08 01:13:37;;;;;;;;;;;;;;;27.52;37.37;101773.00;4131210;28;19980;-65
2023/05/08 01:15:57;;;;;;;;;;;;;;;27.50;37.44;101766.88;4132416;28;20021;-65
2023/05/08 01:17:59;;;;;;;;;;;;;;;27.49;37.50;101770.59;4132102;28;20437;-65
2023/05/08 01:20:20;;;;;;;;;;;;;;;27.48;37.65;101769.72;4132429;28;19929;-65
2023/05/08 01:22:33;;;;;;;;;;;;;;;27.48;37.71;101767.00;4131210;28;19952;-66
2023/05/08 01:24:38;;;;;;;;;;;;;;;27.49;37.73;101773.28;4132444;28;19921;-65
2023/05/08 01:26:48;;;;;;;;;;;;;;;27.48;37.61;101767.00;4132242;28;19976;-65
2023/05/08 01:28:53;;;;;;;;;;;;;;;27.49;37.56;101771.44;4131642;28;20036;-66
2023/05/08 01:30:57;;;;;;;;;;;;;;;27.50;37.26;101780.38;4130791;28;20020;-66
2023/05/08 01:33:06;;;;;;;;;;;;;;;27.49;37.51;101779.53;4130913;28;19922;-65
2023/05/08 01:35:29;;;;;;;;;;;;;;;27.49;37.44;101776.00;4132145;28;19922;-66
2023/05/08 01:37:48;;;;;;;;;;;;;;;27.49;37.58;101774.13;4131868;28;19921;-64
2023/05/08 01:39:56;;;;;;;;;;;;;;;27.48;37.56;101776.97;4131991;28;19925;-65
2023/05/08 01:42:03;;;;;;;;;;;;;;;27.48;37.41;101774.28;4131714;28;19921;-65
2023/05/08 01:44:18;;;;;;;;;;;;;;;27.47;37.60;101768.00;4131298;28;19922;-65
2023/05/08 01:46:24;;;;;;;;;;;;;;;27.47;37.54;101772.56;4114914;28;19930;-65
2023/05/08 01:48:34;;;;;;;;;;;;;;;27.46;37.14;101787.06;4131784;28;19928;-65
2023/05/08 01:50:39;;;;;;;;;;;;;;;27.45;37.16;101782.66;4132117;28;20012;-66
2023/05/08 01:52:57;;;;;;;;;;;;;;;27.46;37.27;101784.38;4113649;28;19926;-66
2023/05/08 01:55:00;;;;;;;;;;;;;;;27.46;37.33;101777.09;4131234;28;19922;-64
2023/05/08 01:57:03;;;;;;;;;;;;;;;27.46;37.52;101784.38;4131565;28;20021;-66
2023/05/08 01:59:08;;;;;;;;;;;;;;;27.46;37.15;101785.19;4131658;28;19928;-65
2023/05/08 02:01:11;;;;;;;;;;;;;;;27.46;37.15;101785.19;4130625;28;19922;-64
2023/05/08 02:03:15;;;;;;;;;;;;;;;27.47;37.38;101780.66;4130439;28;19928;-65
2023/05/08 02:05:18;;;;;;;;;;;;;;;27.46;37.40;101782.50;4131578;28;20387;-64
2023/05/08 02:07:21;;;;;;;;;;;;;;;27.45;37.34;101785.34;4130491;28;20008;-64
2023/05/08 02:09:24;;;;;;;;;;;;;;;27.45;37.11;101782.66;4131540;28;20004;-64
2023/05/08 02:11:26;;;;;;;;;;;;;;;27.44;37.17;101783.63;4131337;28;19976;-63
2023/05/08 02:13:29;;;;;;;;;;;;;;;27.42;37.35;101795.44;4130361;28;19992;-64
2023/05/08 02:15:34;;;;;;;;;;;;;;;27.42;37.34;101787.34;4131583;28;20017;-64
2023/05/08 02:17:38;;;;;;;;;;;;;;;27.41;37.06;101796.44;4131279;28;20113;-64
2023/05/08 02:19:40;;;;;;;;;;;;;;;27.41;37.21;101793.75;4131570;28;19925;-64
2023/05/08 02:21:43;;;;;;;;;;;;;;;27.40;37.15;101794.72;4131709;28;19922;-64
2023/05/08 02:23:45;;;;;;;;;;;;;;;27.40;37.20;101802.81;4131282;28;20000;-64
2023/05/08 02:25:47;;;;;;;;;;;;;;;27.41;37.34;101803.69;4131228;28;19921;-64
2023/05/08 02:27:49;;;;;;;;;;;;;;;27.42;37.28;101794.59;4130946;28;19922;-64
2023/05/08 02:29:52;;;;;;;;;;;;;;;27.42;36.89;101791.91;4131210;28;19929;-66
2023/05/08 02:31:54;;;;;;;;;;;;;;;27.40;37.01;101797.41;4130643;28;19922;-66
2023/05/08 02:33:57;;;;;;;;;;;;;;;27.40;37.06;101793.84;4131499;28;20347;-66
2023/05/08 02:35:58;;;;;;;;;;;;;;;27.38;36.75;101796.69;4131158;28;19922;-65
2023/05/08 02:38:00;;;;;;;;;;;;;;;27.37;37.16;101796.84;4131454;28;20028;-65
2023/05/08 02:40:03;;;;;;;;;;;;;;;27.38;36.87;101801.25;4130809;28;19957;-65
2023/05/08 02:42:04;;;;;;;;;;;;;;;27.37;37.13;101802.22;4130623;28;19992;-65
2023/05/08 02:44:06;;;;;;;;;;;;;;;27.36;37.12;101798.66;4131184;28;20006;-65
2023/05/08 02:46:17;;;;;;;;;;;;;;;27.36;36.72;101801.38;4131243;28;19976;-66
2023/05/08 02:48:24;;;;;;;;;;;;;;;27.37;37.07;101796.84;4131322;28;19944;-66
2023/05/08 02:50:34;;;;;;;;;;;;;;;27.38;36.89;101795.84;4130340;28;20370;-65
2023/05/08 02:52:59;;;;;;;;;;;;;;;27.36;36.99;101804.06;4131178;28;20355;-67
2023/05/08 02:55:10;;;;;;;;;;;;;;;27.37;36.98;101796.84;4130618;28;20418;-65
2023/05/08 02:57:30;;;;;;;;;;;;;;;27.27;36.74;101781.44;4131308;28;19993;-65
2023/05/08 02:59:34;;;;;;;;;;;;;;;27.36;36.89;101795.97;4131171;28;19955;-66
2023/05/08 03:01:47;;;;;;;;;;;;;;;27.34;36.95;101787.16;4129986;28;19944;-65
2023/05/08 03:03:55;;;;;;;;;;;;;;;27.33;36.97;101790.84;4130143;28;19921;-65
2023/05/08 03:05:58;;;;;;;;;;;;;;;27.34;36.98;101794.41;4131253;28;19922;-64
2023/05/08 03:08:02;;;;;;;;;;;;;;;27.33;36.60;101795.38;4116968;28;20410;-66
2023/05/08 03:10:06;;;;;;;;;;;;;;;27.32;36.59;101785.59;4133898;28;19932;-66
2023/05/08 03:12:16;;;;;;;;;;;;;;;27.31;36.69;101787.44;4133576;28;20395;-66
2023/05/08 03:14:19;;;;;;;;;;;;;;;27.31;36.88;101783.88;4134079;28;19922;-65
2023/05/08 03:16:23;;;;;;;;;;;;;;;27.30;36.90;101785.72;4134211;28;19961;-65
2023/05/08 03:18:29;;;;;;;;;;;;;;;27.30;36.73;101788.41;4134059;28;19921;-64
2023/05/08 03:20:35;;;;;;;;;;;;;;;27.30;36.80;101788.41;4133044;28;20318;-65
2023/05/08 03:22:37;;;;;;;;;;;;;;;27.30;36.43;101783.00;4133661;28;19921;-65
2023/05/08 03:24:41;;;;;;;;;;;;;;;27.29;36.68;101781.31;4133862;28;19921;-65
2023/05/08 03:26:43;;;;;;;;;;;;;;;27.29;36.67;101778.59;4134030;28;20016;-65
2023/05/08 03:28:47;;;;;;;;;;;;;;;27.29;36.90;101784.00;4133803;28;19965;-64
2023/05/08 03:30:49;;;;;;;;;;;;;;;27.29;36.39;101780.47;4132939;28;19957;-65
2023/05/08 03:32:52;;;;;;;;;;;;;;;27.27;36.58;101775.19;4133753;28;20350;-65
2023/05/08 03:34:56;;;;;;;;;;;;;;;27.27;36.47;101775.19;4116541;28;20102;-64
2023/05/08 03:36:58;;;;;;;;;;;;;;;27.26;36.59;101777.03;4133809;28;19921;-65
2023/05/08 03:38:59;;;;;;;;;;;;;;;27.25;36.46;101780.72;4133383;28;19922;-66
2023/05/08 03:41:01;;;;;;;;;;;;;;;27.25;36.53;101783.44;4132965;28;19987;-66
2023/05/08 03:43:05;;;;;;;;;;;;;;;27.24;36.75;101787.16;4133657;28;19922;-65
2023/05/08 03:45:08;;;;;;;;;;;;;;;27.25;36.62;101791.53;4133831;28;19922;-65
2023/05/08 03:47:10;;;;;;;;;;;;;;;27.26;36.65;101790.53;4133637;28;19922;-65
2023/05/08 03:49:13;;;;;;;;;;;;;;;27.26;36.58;101789.69;4133887;28;19983;-64
2023/05/08 03:51:15;;;;;;;;;;;;;;;27.26;36.69;101792.41;4131376;28;19925;-65
2023/05/08 03:53:16;;;;;;;;;;;;;;;27.25;36.57;101790.69;4131852;28;19922;-65
2023/05/08 03:55:18;;;;;;;;;;;;;;;27.24;36.74;101789.84;4133543;28;19922;-63
2023/05/08 03:57:20;;;;;;;;;;;;;;;27.24;36.59;101789.84;4133609;28;20407;-64
2023/05/08 03:59:42;;;;;;;;;;;;;;;27.23;36.63;101784.56;4133615;28;19980;-62
2023/05/08 04:01:49;;;;;;;;;;;;;;;27.23;36.33;101793.53;4116413;28;20045;-63
2023/05/08 04:04:08;;;;;;;;;;;;;;;27.22;36.49;101793.66;4116371;28;19981;-64
2023/05/08 04:06:13;;;;;;;;;;;;;;;27.22;36.48;101796.34;4133277;28;19953;-63
2023/05/08 04:08:16;;;;;;;;;;;;;;;27.21;36.47;101794.66;4132992;28;19926;-64
2023/05/08 04:10:23;;;;;;;;;;;;;;;27.22;36.35;101794.53;4132948;28;19943;-65
2023/05/08 04:12:35;;;;;;;;;;;;;;;27.22;36.59;101785.53;4132978;28;20449;-64
2023/05/08 04:14:42;;;;;;;;;;;;;;;27.22;36.41;101783.72;4133339;28;19922;-64
2023/05/08 04:16:48;;;;;;;;;;;;;;;27.22;36.23;101783.72;4133413;28;20334;-64
2023/05/08 04:18:53;;;;;;;;;;;;;;;27.22;36.23;101786.41;4132536;28;19936;-64
2023/05/08 04:20:55;;;;;;;;;;;;;;;27.22;36.52;101781.03;4132172;28;19922;-64
2023/05/08 04:22:57;;;;;;;;;;;;;;;27.21;36.12;101784.72;4132674;28;19922;-63
2023/05/08 04:25:01;;;;;;;;;;;;;;;27.19;36.19;101781.28;4133235;28;19945;-63
2023/05/08 04:27:03;;;;;;;;;;;;;;;27.19;36.17;101777.75;4133096;28;19921;-63
2023/05/08 04:29:05;;;;;;;;;;;;;;;27.18;36.43;101787.69;4133109;28;19926;-62
2023/05/08 04:31:07;;;;;;;;;;;;;;;27.17;36.45;101782.41;4131969;28;19928;-64
2023/05/08 04:33:09;;;;;;;;;;;;;;;27.17;36.27;101780.59;4132931;28;19929;-63
2023/05/08 04:35:14;;;;;;;;;;;;;;;27.17;36.22;101788.69;4133077;28;19926;-63
2023/05/08 04:37:23;;;;;;;;;;;;;;;27.16;36.50;101784.28;4132698;28;19929;-64
2023/05/08 04:39:25;;;;;;;;;;;;;;;27.17;36.44;101782.41;4133007;28;20420;-64
2023/05/08 04:41:26;;;;;;;;;;;;;;;27.16;36.08;101784.28;4131980;28;20125;-64
2023/05/08 04:43:28;;;;;;;;;;;;;;;27.16;36.10;101786.97;4132860;28;19922;-64
2023/05/08 04:45:29;;;;;;;;;;;;;;;27.16;36.15;101792.38;4132967;28;20454;-64
2023/05/08 04:47:31;;;;;;;;;;;;;;;27.15;36.01;101790.66;4132933;28;19928;-64
2023/05/08 04:49:32;;;;;;;;;;;;;;;27.16;35.99;101784.28;4132807;28;19993;-64
2023/05/08 04:51:34;;;;;;;;;;;;;;;27.15;35.92;101790.66;4131535;28;19953;-64
2023/05/08 04:53:36;;;;;;;;;;;;;;;27.15;36.40;101787.13;4132774;28;19941;-64
2023/05/08 04:55:37;;;;;;;;;;;;;;;27.12;36.22;101788.22;4132899;28;19996;-64
2023/05/08 04:57:39;;;;;;;;;;;;;;;27.13;36.33;101786.38;4132702;28;19944;-63
2023/05/08 04:59:40;;;;;;;;;;;;;;;27.12;36.06;101788.22;4132456;28;19969;-64
2023/05/08 05:01:42;;;;;;;;;;;;;;;27.12;36.08;101790.09;4131750;28;19925;-64
2023/05/08 05:03:43;;;;;;;;;;;;;;;27.14;36.04;101796.22;4132780;28;19921;-65
2023/05/08 05:05:45;;;;;;;;;;;;;;;27.13;36.02;101792.63;4132493;28;20268;-64
2023/05/08 05:07:46;;;;;;;;;;;;;;;27.13;35.90;101798.03;4132677;28;19953;-64
2023/05/08 05:09:48;;;;;;;;;;;;;;;27.13;36.29;101799.91;4132383;28;20315;-65
2023/05/08 05:11:50;;;;;;;;;;;;;;;27.12;35.94;101799.03;4131569;28;19922;-64
2023/05/08 05:13:51;;;;;;;;;;;;;;;27.12;35.94;101803.59;4132488;28;20305;-64
2023/05/08 05:15:53;;;;;;;;;;;;;;;27.11;35.86;101808.13;4132491;28;20012;-64
2023/05/08 05:17:55;;;;;;;;;;;;;;;27.10;35.98;101809.97;4132270;28;20028;-65
2023/05/08 05:19:57;;;;;;;;;;;;;;;27.10;36.04;101817.22;4131921;28;19928;-65
2023/05/08 05:21:58;;;;;;;;;;;;;;;27.10;36.24;101818.06;4131063;28;19922;-65
2023/05/08 05:24:00;;;;;;;;;;;;;;;27.09;35.81;101823.63;4132092;28;19933;-64
2023/05/08 05:26:01;;;;;;;;;;;;;;;27.10;36.01;101833.44;4131988;28;19929;-64
2023/05/08 05:28:03;;;;;;;;;;;;;;;27.09;35.89;101834.41;4132106;28;19933;-64
2023/05/08 05:30:05;;;;;;;;;;;;;;;27.08;36.19;101830.84;4130539;28;19944;-64
2023/05/08 05:32:09;;;;;;;;;;;;;;;27.08;35.87;101830.00;4131176;28;19922;-65
2023/05/08 05:34:11;;;;;;;;;;;;;;;27.08;36.11;101838.94;4132365;28;19976;-65
2023/05/08 05:36:12;;;;;;;;;;;;;;;27.07;35.95;101842.66;4131833;28;19928;-64
2023/05/08 05:38:14;;;;;;;;;;;;;;;27.08;35.86;101838.09;4132028;28;19976;-64
2023/05/08 05:40:16;;;;;;;;;;;;;;;27.08;36.16;101849.75;4131955;28;19922;-64
2023/05/08 05:42:17;;;;;;;;;;;;;;;27.08;36.18;101849.75;4130836;28;19996;-65
2023/05/08 05:44:19;;;;;;;;;;;;;;;27.07;35.93;101839.97;4114794;28;19921;-65
2023/05/08 05:46:20;;;;;;;;;;;;;;;27.07;35.78;101848.06;4131921;28;19989;-66
2023/05/08 05:48:22;;;;;;;;;;;;;;;27.05;36.12;101841.06;4132197;28;20414;-64
2023/05/08 05:50:25;;;;;;;;;;;;;;;27.04;36.05;101834.81;4131654;28;20025;-64
2023/05/08 05:52:26;;;;;;;;;;;;;;;27.03;35.88;101834.97;4131043;28;19928;-64
2023/05/08 05:54:28;;;;;;;;;;;;;;;27.05;35.87;101838.34;4131882;28;19943;-64
2023/05/08 05:56:29;;;;;;;;;;;;;;;27.05;35.88;101841.06;4131922;28;19928;-65
2023/05/08 05:58:31;;;;;;;;;;;;;;;27.05;36.05;101836.53;4131710;28;19929;-63
2023/05/08 06:00:32;;;;;;;;;;;;;;;27.05;35.95;101839.22;4131830;28;20482;-64
2023/05/08 06:02:37;;;;;;;;;;;;;;;27.05;36.00;101841.94;4130770;28;19922;-65
2023/05/08 06:04:39;;;;;;;;;;;;;;;27.05;35.80;101849.16;4131438;28;19928;-63
2023/05/08 06:06:41;;;;;;;;;;;;;;;27.05;35.72;101851.84;4131529;28;19979;-63
2023/05/08 06:08:43;;;;;;;;;;;;;;;27.03;35.61;101854.72;4131856;28;19925;-63
2023/05/08 06:10:44;;;;;;;;;;;;;;;27.04;35.72;101863.69;4131199;28;19925;-63
2023/05/08 06:12:49;;;;;;;;;;;;;;;27.03;35.75;101868.19;4131504;28;19922;-64
2023/05/08 06:14:51;;;;;;;;;;;;;;;27.02;35.91;101868.34;4131646;28;20402;-63
2023/05/08 06:16:52;;;;;;;;;;;;;;;27.01;35.71;101869.34;4131570;28;19930;-64
2023/05/08 06:18:54;;;;;;;;;;;;;;;27.01;35.93;101864.81;4131043;28;19921;-64
2023/05/08 06:20:56;;;;;;;;;;;;;;;27.02;35.89;101873.75;4130590;28;19921;-64
2023/05/08 06:22:58;;;;;;;;;;;;;;;27.02;35.88;101865.66;4131135;28;19925;-64
2023/05/08 06:24:59;;;;;;;;;;;;;;;27.02;35.90;101868.34;4131508;28;20280;-63
2023/05/08 06:27:01;;;;;;;;;;;;;;;27.01;35.75;101875.59;4131404;28;19922;-64
2023/05/08 06:29:02;;;;;;;;;;;;;;;27.01;35.68;101869.34;4131510;28;19926;-64
2023/05/08 06:31:04;;;;;;;;;;;;;;;27.01;35.52;101861.22;4130731;28;19990;-64
2023/05/08 06:33:05;;;;;;;;;;;;;;;27.01;35.87;101867.50;4130950;28;19921;-64
2023/05/08 06:35:07;;;;;;;;;;;;;;;27.01;35.68;101869.34;4131429;28;20326;-64
2023/05/08 06:37:08;;;;;;;;;;;;;;;27.00;35.80;101871.19;4131483;28;20383;-63
2023/05/08 06:39:10;;;;;;;;;;;;;;;26.99;35.72;101874.88;4114044;28;19922;-64
2023/05/08 06:41:11;;;;;;;;;;;;;;;26.99;35.49;101872.19;4131961;28;19999;-66
2023/05/08 06:43:15;;;;;;;;;;;;;;;26.99;35.79;101874.00;4136422;28;19925;-64
2023/05/08 06:45:17;;;;;;;;;;;;;;;26.98;35.79;101878.56;4136864;28;20349;-64
2023/05/08 06:47:19;;;;;;;;;;;;;;;26.99;35.50;101874.00;4136434;28;20429;-64
2023/05/08 06:49:21;;;;;;;;;;;;;;;26.99;35.82;101868.59;4119494;28;19921;-64
2023/05/08 06:51:23;;;;;;;;;;;;;;;26.98;35.75;101875.03;4135710;28;19956;-64
2023/05/08 06:53:25;;;;;;;;;;;;;;;26.99;35.52;101868.59;4119152;28;19922;-64
2023/05/08 06:55:26;;;;;;;;;;;;;;;26.98;35.76;101867.75;4136575;28;19968;-65
2023/05/08 06:57:29;;;;;;;;;;;;;;;27.00;35.39;101867.63;4119286;28;19922;-64
2023/05/08 06:59:30;;;;;;;;;;;;;;;26.99;35.50;101868.59;4136578;28;20322;-64
2023/05/08 07:01:32;;;;;;;;;;;;;;;26.98;35.50;101878.56;4135345;28;19928;-64
2023/05/08 07:03:33;;;;;;;;;;;;;;;26.98;35.31;101878.56;4136613;28;19925;-66
2023/05/08 07:05:35;;;;;;;;;;;;;;;26.98;35.59;101877.72;4136763;28;19936;-64
2023/05/08 07:07:36;;;;;;;;;;;;;;;26.97;35.68;101876.84;4136523;28;20006;-64
2023/05/08 07:09:38;;;;;;;;;;;;;;;26.97;35.81;101884.09;4136569;28;19922;-64
2023/05/08 07:11:40;;;;;;;;;;;;;;;26.96;35.53;101882.38;4135496;28;19921;-64
2023/05/08 07:13:47;;;;;;;;;;;;;;;26.96;35.64;101888.63;4136555;28;20292;-66
2023/05/08 07:15:48;;;;;;;;;;;;;;;26.96;35.45;101899.44;4136752;28;19922;-64
2023/05/08 07:17:50;;;;;;;;;;;;;;;26.96;35.28;101896.72;4136215;28;20012;-65
2023/05/08 07:19:51;;;;;;;;;;;;;;;26.96;35.26;101898.59;4136481;28;19968;-64
2023/05/08 07:21:53;;;;;;;;;;;;;;;26.96;35.63;101895.88;4135221;28;19925;-64
2023/05/08 07:23:54;;;;;;;;;;;;;;;26.97;35.39;101892.19;4136102;28;19921;-66
2023/05/08 07:25:56;;;;;;;;;;;;;;;26.96;35.68;101896.72;4136491;28;20315;-64
2023/05/08 07:27:58;;;;;;;;;;;;;;;26.96;35.41;101894.03;4136606;28;19968;-64
2023/05/08 07:30:02;;;;;;;;;;;;;;;26.96;35.40;101904.81;4136289;28;19922;-65
2023/05/08 07:32:06;;;;;;;;;;;;;;;26.96;35.39;101901.28;4134807;28;19922;-64
2023/05/08 07:34:07;;;;;;;;;;;;;;;26.94;35.63;101902.28;4136421;28;19934;-64
2023/05/08 07:36:09;;;;;;;;;;;;;;;26.94;35.45;101898.72;4136416;28;19948;-63
2023/05/08 07:38:11;;;;;;;;;;;;;;;26.93;35.43;101899.72;4136316;28;19925;-66
2023/05/08 07:40:12;;;;;;;;;;;;;;;26.93;35.45;101911.34;4136254;28;19927;-66
2023/05/08 07:42:14;;;;;;;;;;;;;;;26.94;35.75;101914.94;4135344;28;19933;-63
2023/05/08 07:44:15;;;;;;;;;;;;;;;26.94;35.52;101915.75;4136383;28;20346;-66
2023/05/08 07:46:17;;;;;;;;;;;;;;;26.95;35.50;101916.59;4135838;28;19928;-66
2023/05/08 07:48:19;;;;;;;;;;;;;;;26.97;35.37;101916.50;4136246;28;19969;-64
2023/05/08 07:50:21;;;;;;;;;;;;;;;26.97;35.45;101921.91;4136406;28;19944;-66
2023/05/08 07:52:22;;;;;;;;;;;;;;;26.96;35.50;101921.03;4134852;28;20012;-66
2023/05/08 07:54:24;;;;;;;;;;;;;;;26.96;35.48;101920.19;4133074;28;20357;-65
2023/05/08 07:56:26;;;;;;;;;;;;;;;26.95;35.41;101916.59;4133791;28;19922;-66
2023/05/08 07:58:28;;;;;;;;;;;;;;;26.95;35.32;101919.31;4133779;28;20417;-67
2023/05/08 08:00:30;;;;;;;;;;;;;;;26.95;35.38;101916.59;4133171;28;19968;-66
2023/05/08 08:02:32;;;;;;;;;;;;;;;26.94;35.37;101909.53;4115201;28;19922;-66
2023/05/08 08:04:33;;;;;;;;;;;;;;;26.94;35.45;101921.16;4133597;28;20019;-64
2023/05/08 08:06:35;;;;;;;;;;;;;;;26.95;35.39;101919.31;4133472;28;19922;-64
2023/05/08 08:08:36;;;;;;;;;;;;;;;26.95;35.58;101924.72;4133244;28;19921;-65
2023/05/08 08:10:38;;;;;;;;;;;;;;;26.96;35.33;101926.44;4133250;28;20296;-66
2023/05/08 08:12:39;;;;;;;;;;;;;;;26.96;35.57;101926.44;4132546;28;19921;-66
2023/05/08 08:14:41;;;;;;;;;;;;;;;26.97;35.23;101914.63;4133000;28;19926;-66
2023/05/08 08:16:43;;;;;;;;;;;;;;;26.97;35.63;101928.13;4116120;28;19953;-66
2023/05/08 08:18:44;;;;;;;;;;;;;;;26.98;35.58;101935.25;4133335;28;19929;-65
2023/05/08 08:20:46;;;;;;;;;;;;;;;26.98;35.42;101924.47;4133254;28;20297;-65
2023/05/08 08:22:48;;;;;;;;;;;;;;;26.97;35.61;101930.84;4114760;28;20000;-64
2023/05/08 08:24:49;;;;;;;;;;;;;;;26.96;35.64;101925.59;4133400;28;19921;-65
2023/05/08 08:26:54;;;;;;;;;;;;;;;26.96;35.30;101925.59;4133227;28;20395;-65
2023/05/08 08:28:56;;;;;;;;;;;;;;;26.94;35.65;101926.56;4132878;28;19922;-64
2023/05/08 08:30:57;;;;;;;;;;;;;;;26.94;35.48;101923.03;4133214;28;20442;-64
2023/05/08 08:33:01;;;;;;;;;;;;;;;26.94;35.53;101931.97;4132147;28;19923;-64
2023/05/08 08:35:02;;;;;;;;;;;;;;;26.96;35.34;101925.59;4133277;28;19922;-65
2023/05/08 08:37:05;;;;;;;;;;;;;;;26.97;35.51;101925.44;4133172;28;19926;-65
2023/05/08 08:39:07;;;;;;;;;;;;;;;26.98;35.66;101926.31;4133058;28;19949;-65
2023/05/08 08:41:13;;;;;;;;;;;;;;;26.99;35.58;101930.69;4132746;28;19925;-66
2023/05/08 08:43:15;;;;;;;;;;;;;;;26.98;35.56;101931.72;4132146;28;19960;-64
2023/05/08 08:45:16;;;;;;;;;;;;;;;26.98;35.51;101932.56;4133011;28;19922;-65
2023/05/08 08:47:22;;;;;;;;;;;;;;;26.99;35.27;101930.69;4133084;28;19975;-64
2023/05/08 08:49:26;;;;;;;;;;;;;;;26.99;35.50;101928.88;4132941;28;19925;-64
2023/05/08 08:51:31;;;;;;;;;;;;;;;26.99;35.22;101928.88;4131962;28;19922;-65
2023/05/08 08:53:36;;;;;;;;;;;;;;;27.00;35.69;101932.41;4132739;28;19926;-65
2023/05/08 08:55:43;;;;;;;;;;;;;;;26.98;35.44;101934.41;4132799;28;19921;-66
2023/05/08 08:57:53;;;;;;;;;;;;;;;26.98;35.63;101934.41;4115330;28;19926;-64
2023/05/08 08:59:56;;;;;;;;;;;;;;;26.96;35.32;101937.22;4132828;28;19925;-66
2023/05/08 09:02:00;;;;;;;;;;;;;;;26.97;35.34;101935.41;4131889;28;19928;-66
2023/05/08 09:04:01;;;;;;;;;;;;;;;27.00;35.36;101932.41;4131457;28;19922;-66
2023/05/08 09:06:04;;;;;;;;;;;;;;;26.99;35.62;101934.28;4132557;28;20383;-65
2023/05/08 09:08:08;;;;;;;;;;;;;;;26.99;35.57;101936.97;4132580;28;19929;-66
2023/05/08 09:10:14;;;;;;;;;;;;;;;26.99;35.40;101944.19;4115328;28;19997;-65
2023/05/08 09:12:16;;;;;;;;;;;;;;;27.00;35.58;101943.22;4130036;28;20313;-65
2023/05/08 09:14:18;;;;;;;;;;;;;;;26.99;35.11;101949.59;4132458;28;19929;-65
2023/05/08 09:16:19;;;;;;;;;;;;;;;26.99;35.39;101949.59;4132307;28;19922;-65
2023/05/08 09:18:21;;;;;;;;;;;;;;;26.98;35.60;101951.47;4114925;28;19922;-66
2023/05/08 09:20:23;;;;;;;;;;;;;;;26.98;35.58;101954.16;4132254;28;20303;-65
2023/05/08 09:22:25;;;;;;;;;;;;;;;26.98;35.37;101946.06;4131072;28;20013;-65
2023/05/08 09:24:46;;;;;;;;;;;;;;;26.97;35.47;101940.78;4132487;28;19922;-65
2023/05/08 09:26:48;;;;;;;;;;;;;;;26.97;35.43;101938.94;4131625;28;19925;-66
2023/05/08 09:29:06;;;;;;;;;;;;;;;26.98;35.63;101942.50;4132125;28;19928;-65
2023/05/08 09:31:07;;;;;;;;;;;;;;;26.98;35.57;101946.06;4132210;28;19947;-65
2023/05/08 09:33:10;;;;;;;;;;;;;;;26.99;35.31;101949.59;4131236;28;20022;-65
2023/05/08 09:35:12;;;;;;;;;;;;;;;26.89;35.49;101931.50;4132136;28;19925;-65
2023/05/08 09:37:14;;;;;;;;;;;;;;;26.98;35.28;101945.22;4132308;28;19928;-65
2023/05/08 09:39:21;;;;;;;;;;;;;;;26.98;35.66;101946.06;4132017;28;20040;-66
2023/05/08 09:41:23;;;;;;;;;;;;;;;26.98;35.59;101942.50;4114415;28;19921;-65
2023/05/08 09:43:25;;;;;;;;;;;;;;;26.97;35.52;101935.41;4131440;28;19925;-65
2023/05/08 09:45:27;;;;;;;;;;;;;;;26.98;35.39;101923.63;4131952;28;19930;-65
2023/05/08 09:47:29;;;;;;;;;;;;;;;26.96;35.62;101923.72;4132039;28;19922;-65
2023/05/08 09:49:31;;;;;;;;;;;;;;;26.96;35.39;101931.81;4132132;28;20458;-65
2023/05/08 09:51:32;;;;;;;;;;;;;;;26.96;35.53;101923.72;4131157;28;19928;-66
2023/05/08 09:53:34;;;;;;;;;;;;;;;26.99;35.58;101919.91;4131875;28;20016;-65
2023/05/08 09:56:01;;;;;;;;;;;;;;;26.98;35.72;101921.75;4130303;28;20297;-65
2023/05/08 09:58:03;;;;;;;;;;;;;;;26.98;35.70;101918.22;4127232;28;19957;-64
2023/05/08 10:00:06;;;;;;;;;;;;;;;26.99;35.60;101909.09;4131895;28;21928;-65
2023/05/08 10:02:11;;;;;;;;;;;;;;;27.01;35.50;101907.13;4130757;28;20454;-66
2023/05/08 10:04:13;;;;;;;;;;;;;;;27.03;35.21;101913.25;4131866;28;20278;-66
2023/05/08 10:06:15;;;;;;;;;;;;;;;27.02;35.30;101907.00;4131951;28;19960;-66
2023/05/08 10:08:16;;;;;;;;;;;;;;;27.02;35.31;101903.44;4131589;28;19925;-66
2023/05/08 10:10:25;;;;;;;;;;;;;;;27.03;35.14;101902.47;4131286;28;19922;-66
2023/05/08 10:12:27;;;;;;;;;;;;;;;27.02;35.22;101907.00;4130700;28;20284;-66
2023/05/08 10:14:29;;;;;;;;;;;;;;;27.03;35.24;101908.69;4131717;28;19932;-65
2023/05/08 10:16:35;;;;;;;;;;;;;;;27.02;35.45;101896.19;4131201;28;19976;-65
2023/05/08 10:18:38;;;;;;;;;;;;;;;27.03;35.26;101897.06;4131755;28;20391;-65
2023/05/08 10:20:40;;;;;;;;;;;;;;;27.05;35.48;101893.22;4131328;28;19980;-65
2023/05/08 10:22:42;;;;;;;;;;;;;;;27.06;35.29;101897.66;4130099;28;19922;-66
2023/05/08 10:24:48;;;;;;;;;;;;;;;27.08;35.36;101892.09;4131248;28;20013;-65
2023/05/08 10:26:55;;;;;;;;;;;;;;;27.09;35.57;101896.53;4131243;28;19922;-66
2023/05/08 10:29:12;;;;;;;;;;;;;;;27.09;35.42;101891.13;4131449;28;20009;-65
2023/05/08 10:31:16;;;;;;;;;;;;;;;27.08;35.36;101882.16;4131302;28;19928;-65
2023/05/08 10:33:24;;;;;;;;;;;;;;;27.10;35.34;101876.63;4130758;28;19976;-65